CDT,Max TemperatureF,Mean TemperatureF,Min TemperatureF,Max Dew PointF,MeanDew PointF,Min DewpointF,Max Humidity, Mean Humidity, Min Humidity, Max Sea Level PressureIn, Mean Sea Level PressureIn, Min Sea Level PressureIn, Max VisibilityMiles, Mean VisibilityMiles, Min VisibilityMiles, Max Wind SpeedMPH, Mean Wind SpeedMPH, Max Gust SpeedMPH,PrecipitationIn, CloudCover, Events, WindDirDegrees
2013-4-1,42,30,19,30,19,9,93,66,26,30.33,30.27,30.13,10,10,2,17,10,23,0.01,1,Snow,352
2013-4-2,51,34,17,25,16,9,86,52,19,30.35,30.30,30.25,10,10,10,12,2,,0.00,1,,41
2013-4-3,55,40,26,25,21,18,80,49,23,30.38,30.31,30.23,10,10,10,14,4,18,0.00,0,,156
2013-4-4,66,44,23,36,26,18,80,53,26,30.24,30.13,30.04,10,10,7,15,3,21,0.00,1,,299
2013-4-5,66,48,30,37,31,27,86,50,26,30.19,30.02,29.75,10,10,10,21,8,26,0.00,0,,130
2013-4-6,71,58,46,45,38,28,66,46,21,29.79,29.68,29.60,10,10,5,23,15,31,0.00,2,,227
2013-4-7,78,58,39,54,37,27,88,52,17,29.88,29.78,29.64,10,10,7,20,6,28,0.04,2,Rain,135
2013-4-8,69,56,44,61,53,41,94,83,64,29.74,29.69,29.62,10,8,0,21,6,23,0.22,6,Fog-Rain,143
2013-4-9,68,55,42,61,50,37,88,84,77,29.91,29.73,29.62,10,8,3,22,11,28,0.19,8,Rain,48
2013-4-10,42,40,37,39,37,34,93,88,81,29.94,29.84,29.76,10,8,2,24,13,33,0.54,8,Rain,351
2013-4-11,37,35,33,34,31,28,93,84,75,29.76,29.68,29.64,10,8,2,16,11,20,0.01,8,Rain-Snow,271
2013-4-12,42,38,33,30,29,27,87,73,57,30.01,29.86,29.71,10,10,4,17,12,23,0.00,8,Rain,302
2013-4-13,53,40,26,37,31,23,86,67,51,30.03,29.92,29.71,10,10,10,15,6,20,0.00,3,,173
2013-4-14,71,58,46,52,42,32,76,61,42,29.69,29.51,29.37,10,10,10,30,15,37,0.01,4,Rain,182
2013-4-15,44,38,32,32,28,23,81,63,49,30.08,29.89,29.68,10,10,10,17,5,21,0.00,5,,313
2013-4-16,51,40,30,34,30,27,87,63,40,30.24,30.16,30.05,10,10,10,15,7,21,0.00,5,,41
2013-4-17,46,42,39,43,38,34,93,81,62,30.17,29.91,29.58,10,8,1,21,11,34,1.76,8,Rain,34
2013-4-18,39,36,33,36,33,28,93,87,75,29.87,29.73,29.64,10,7,2,26,17,37,0.57,8,Rain-Snow,324
2013-4-19,46,38,28,28,23,19,81,58,34,30.11,29.94,29.82,10,10,7,24,15,31,0.00,2,Snow,304
2013-4-20,48,36,23,28,21,10,86,53,27,30.28,30.19,30.11,10,10,10,13,4,18,0.00,2,,102
2013-4-21,69,56,44,48,38,28,88,51,28,30.19,30.11,30.04,10,10,7,29,13,37,0.22,5,Rain,177
2013-4-22,64,50,35,50,44,30,93,80,55,30.15,30.05,29.92,10,10,4,21,9,31,0.92,6,Rain,210
2013-4-23,42,37,32,30,27,25,81,71,53,30.21,30.16,30.12,10,10,10,23,17,32,0.00,5,,346
2013-4-24,59,42,26,37,25,18,86,59,21,30.21,30.16,30.04,10,10,10,26,7,37,0.00,1,Rain,265
2013-4-25,68,48,28,39,31,25,93,55,23,30.28,30.19,30.06,10,10,7,21,4,28,0.00,1,,201
2013-4-26,66,57,46,48,44,37,87,62,49,30.21,30.13,30.07,10,10,10,23,12,30,0.00,2,,182
2013-4-27,66,55,44,48,46,39,87,73,46,30.22,30.10,29.97,10,9,5,6,1,,0.00,5,,179
2013-4-28,80,60,39,54,46,36,93,61,26,29.99,29.85,29.73,10,9,0,21,7,32,0.00,2,Fog,179
2013-4-29,84,70,55,63,54,46,88,61,27,29.77,29.67,29.54,10,10,7,15,6,20,0.00,1,,180
2013-4-30,82,70,59,61,52,43,69,48,34,29.84,29.67,29.55,10,10,10,22,14,31,0.00,3,,222